OPA Logo
 
ASOS:
At:2021.02.26 0035 UTC
Wind:290° @ 5-11 KT
Viz: 10 mile(s)
Sky: clear
Temp: 44 F (7 C)
DewP: 19 F (-7 C)
RH: 36%
Baro: 30.12 in.
ob: KBDN 260035Z AUTO 29005G11KT 10SM CLR 07/M07 A3012 RMK AO2

ASOS: KRDM
At:2021.02.25 2356 UTC
Wind:280° @ 22-31 KT
Viz: 10 mile(s)
Sky: clear
Temp: 45.0 F (7.2 C)
DewP: 23.0 F (-5.0 C)
RH: 41%
Baro: 30.09 in.
ob: KRDM 252356Z 28022G31KT 10SM CLR 07/M05 A3009 RMK AO2 PK WND 27038/2339 SLP198 T00721050 10106 20072 55009
Apache-SSL Logo

Valid HTML 4.01!

Central Oregon OPA Chapter

Bend Airport Open House 2001

Click on Images to see image full size

USFS Sherpa
USFS Sherpa
Lancair IVP
Lancair IVP
L-3
L-3
Round Engine
Round engine up close
Ouch
Ouch
Carrie ready to defend RDM
Carrie Novick ready to defend RDM
Becky and Dick in The Flight Shop
Becky and Dick in The Flight Shop
USFS Sherpa
USFS Sherpa
Air Life Ramp
Air Life Ramp
too much fun
Too Much Fun
Alison Miller
Alison Miller
Dean Cameron and Dave Holt in Dave's T-34
Dean Cameron and Dave Holt in Dave's T-34

Photo Credits: Air Life, and Gary Miller


Web page by: gem@rellim.com